createdAt,value
2019-05-22T00:00:24.124Z,19.72
2019-05-22T00:02:55.996Z,19.82
2019-05-22T00:05:35.501Z,19.80
2019-05-22T00:08:09.487Z,19.87
2019-05-22T00:10:44.521Z,19.75
2019-05-22T00:13:23.159Z,19.74
2019-05-22T00:15:57.199Z,19.66
2019-05-22T00:18:30.478Z,19.72
2019-05-22T00:21:04.616Z,19.70
2019-05-22T00:23:38.101Z,19.59
2019-05-22T00:26:11.309Z,19.56
2019-05-22T00:28:47.527Z,19.51
2019-05-22T00:31:22.096Z,19.48
2019-05-22T00:33:55.914Z,19.44
2019-05-22T00:36:29.495Z,19.49
2019-05-22T00:39:03.818Z,19.44
2019-05-22T00:41:35.300Z,19.42
2019-05-22T00:44:13.066Z,19.37
2019-05-22T00:46:44.596Z,19.34
2019-05-22T00:49:18.352Z,19.26
2019-05-22T00:52:04.306Z,19.19
2019-05-22T00:54:41.570Z,19.20
2019-05-22T00:57:24.443Z,19.23
2019-05-22T00:59:57.730Z,19.18
2019-05-22T01:02:31.186Z,19.14
2019-05-22T01:05:05.539Z,19.11
2019-05-22T01:07:39.873Z,19.08
2019-05-22T01:10:15.059Z,19.11
2019-05-22T01:12:54.840Z,19.09
2019-05-22T01:15:29.586Z,19.11
2019-05-22T01:18:06.836Z,19.10
2019-05-22T01:20:51.989Z,19.01
2019-05-22T01:23:24.849Z,18.96
2019-05-22T01:25:56.491Z,19.02
2019-05-22T01:28:30.355Z,18.99
2019-05-22T01:31:11.968Z,18.96
2019-05-22T01:34:01.462Z,18.91
2019-05-22T01:36:38.211Z,18.88
2019-05-22T01:39:33.680Z,18.89
2019-05-22T01:42:08.759Z,18.85
2019-05-22T01:44:40.812Z,18.80
2019-05-22T01:47:16.789Z,18.75
2019-05-22T01:49:51.750Z,18.75
2019-05-22T01:52:27.170Z,18.75
2019-05-22T01:55:01.177Z,18.76
2019-05-22T01:57:35.984Z,18.70
2019-05-22T02:00:10.720Z,18.65
2019-05-22T02:02:43.934Z,18.77
2019-05-22T02:05:17.192Z,18.77
2019-05-22T02:07:55.715Z,18.96
2019-05-22T02:10:37.201Z,18.91
2019-05-22T02:13:11.490Z,18.96
2019-05-22T02:15:46.395Z,18.90
2019-05-22T02:18:19.482Z,18.89
2019-05-22T02:20:52.045Z,18.90
2019-05-22T02:23:26.094Z,18.89
2019-05-22T02:26:01.156Z,18.85
2019-05-22T02:28:34.041Z,18.84
2019-05-22T02:31:11.548Z,18.82
2019-05-22T02:34:02.245Z,18.92
2019-05-22T02:36:41.222Z,18.95
2019-05-22T02:39:21.547Z,19.09
2019-05-22T02:42:06.679Z,19.07
2019-05-22T02:44:38.551Z,18.96
2019-05-22T02:47:19.987Z,19.04
2019-05-22T02:49:50.374Z,18.94
2019-05-22T02:52:26.343Z,18.99
2019-05-22T02:54:58.231Z,19.00
2019-05-22T02:57:31.731Z,18.96
2019-05-22T03:00:08.788Z,18.91
2019-05-22T03:02:44.254Z,18.90
2019-05-22T03:05:21.031Z,19.00
2019-05-22T03:07:53.168Z,19.09
2019-05-22T03:10:25.673Z,19.12
2019-05-22T03:12:58.552Z,19.17
2019-05-22T03:15:31.724Z,19.25
2019-05-22T03:18:09.042Z,19.26
2019-05-22T03:20:43.887Z,19.24
2019-05-22T03:23:36.680Z,19.28
2019-05-22T03:26:11.254Z,19.23
2019-05-22T03:28:46.131Z,19.21
2019-05-22T03:31:18.727Z,19.34
2019-05-22T03:33:57.563Z,19.29
2019-05-22T03:36:29.485Z,19.41
2019-05-22T03:39:04.723Z,19.42
2019-05-22T03:41:38.056Z,19.36
2019-05-22T03:44:11.205Z,19.38
2019-05-22T03:46:46.642Z,19.17
2019-05-22T03:49:29.749Z,19.16
2019-05-22T03:51:55.857Z,19.16
2019-05-22T03:54:27.375Z,19.19
2019-05-22T03:57:00.712Z,19.28
2019-05-22T03:59:32.327Z,19.26
2019-05-22T04:02:06.229Z,19.16
2019-05-22T04:04:41.161Z,19.21
2019-05-22T04:07:16.494Z,19.24
2019-05-22T04:09:52.893Z,19.27
2019-05-22T04:12:27.533Z,19.40
2019-05-22T04:15:11.420Z,19.43
2019-05-22T04:17:45.809Z,19.44
2019-05-22T04:20:21.130Z,19.29
2019-05-22T04:22:56.587Z,19.30
2019-05-22T04:25:28.305Z,19.15
2019-05-22T04:28:01.144Z,19.19
2019-05-22T04:30:40.015Z,19.09
2019-05-22T04:33:14.004Z,19.02
2019-05-22T04:35:50.299Z,19.03
2019-05-22T04:38:24.584Z,18.96
2019-05-22T04:40:59.865Z,18.86
2019-05-22T04:43:34.264Z,18.88
2019-05-22T04:46:06.626Z,18.63
2019-05-22T04:48:39.632Z,18.04
2019-05-22T04:51:25.405Z,17.77
2019-05-22T04:54:00.188Z,17.64
2019-05-22T04:56:32.122Z,17.49
2019-05-22T04:59:04.452Z,17.37
2019-05-22T05:01:36.583Z,17.28
2019-05-22T05:04:08.479Z,17.35
2019-05-22T05:06:40.165Z,17.34
2019-05-22T05:09:13.402Z,17.35
2019-05-22T05:11:45.199Z,17.15
2019-05-22T05:14:23.188Z,16.84
2019-05-22T05:16:55.912Z,16.85
2019-05-22T05:19:27.679Z,16.75
2019-05-22T05:22:00.309Z,16.71
2019-05-22T05:24:33.581Z,16.66
2019-05-22T05:27:05.410Z,16.54
2019-05-22T05:29:37.090Z,16.55
2019-05-22T05:32:10.439Z,16.53
2019-05-22T05:34:45.591Z,16.60
2019-05-22T05:37:32.046Z,16.84
2019-05-22T05:40:08.136Z,16.78
2019-05-22T05:42:39.987Z,16.87
2019-05-22T05:45:14.894Z,16.92
2019-05-22T05:47:47.699Z,16.93
2019-05-22T05:50:20.300Z,17.04
2019-05-22T05:52:52.363Z,16.81
2019-05-22T05:55:29.486Z,16.79
2019-05-22T05:58:16.344Z,16.90
2019-05-22T06:00:55.754Z,16.87
2019-05-22T06:03:33.816Z,16.97
2019-05-22T06:06:26.093Z,16.88
2019-05-22T06:09:02.318Z,16.82
2019-05-22T06:11:53.097Z,16.76
2019-05-22T06:14:28.855Z,16.79
2019-05-22T06:17:07.742Z,17.21
2019-05-22T06:19:52.462Z,17.15
2019-05-22T06:22:24.069Z,17.04
2019-05-22T06:25:02.154Z,16.97
2019-05-22T06:27:35.374Z,16.96
2019-05-22T06:30:21.568Z,16.92
2019-05-22T06:33:10.444Z,16.91
2019-05-22T06:35:44.782Z,16.91
2019-05-22T06:38:44.169Z,16.87
2019-05-22T06:41:20.372Z,16.92
2019-05-22T06:44:22.092Z,16.85
2019-05-22T06:46:54.780Z,17.03
2019-05-22T06:49:35.224Z,17.03
2019-05-22T06:52:08.215Z,17.04
2019-05-22T06:54:40.266Z,16.98
2019-05-22T06:57:13.965Z,16.98
2019-05-22T06:59:47.784Z,16.91
2019-05-22T07:02:21.329Z,16.87
2019-05-22T07:04:53.738Z,16.84
2019-05-22T07:07:27.128Z,16.99
2019-05-22T07:10:01.598Z,17.01
2019-05-22T07:12:35.012Z,17.05
2019-05-22T07:15:11.753Z,16.97
2019-05-22T07:17:43.725Z,17.07
2019-05-22T07:20:18.056Z,17.13
2019-05-22T07:22:53.365Z,17.08
2019-05-22T07:25:26.756Z,17.01
2019-05-22T07:28:00.312Z,16.92
2019-05-22T07:30:32.526Z,16.89
2019-05-22T07:33:06.473Z,16.79
2019-05-22T07:35:55.937Z,16.79
2019-05-22T07:38:12.825Z,16.89
2019-05-22T07:40:44.910Z,16.85
2019-05-22T07:43:17.302Z,16.99
2019-05-22T07:45:49.727Z,17.08
2019-05-22T07:48:23.750Z,17.20
2019-05-22T07:50:56.992Z,17.30
2019-05-22T07:53:30.756Z,17.30
2019-05-22T07:56:06.095Z,17.01
2019-05-22T07:58:40.550Z,16.90
2019-05-22T08:01:12.360Z,16.85
2019-05-22T08:03:46.766Z,16.78
2019-05-22T08:06:19.115Z,16.74
2019-05-22T08:08:52.786Z,16.93
2019-05-22T08:11:26.390Z,16.99
2019-05-22T08:14:01.114Z,16.90
2019-05-22T08:16:35.113Z,17.03
2019-05-22T08:19:07.273Z,17.21
2019-05-22T08:22:06.834Z,17.31
2019-05-22T08:24:37.993Z,17.31
2019-05-22T08:27:21.103Z,17.26
2019-05-22T08:30:02.699Z,17.22
2019-05-22T08:32:45.816Z,17.32
2019-05-22T08:35:34.305Z,17.37
2019-05-22T08:38:14.150Z,17.52
2019-05-22T08:40:48.971Z,17.74
2019-05-22T08:43:21.025Z,17.97
2019-05-22T08:45:53.132Z,18.58
2019-05-22T08:48:28.483Z,18.97
2019-05-22T08:51:01.338Z,19.34
2019-05-22T08:53:46.871Z,19.58
2019-05-22T08:56:15.405Z,19.81
2019-05-22T08:58:48.707Z,19.74
2019-05-22T09:01:20.979Z,19.57
2019-05-22T09:03:52.779Z,19.51
2019-05-22T09:06:25.732Z,19.24
2019-05-22T09:09:01.768Z,18.99
2019-05-22T09:11:34.532Z,18.62
2019-05-22T09:14:07.357Z,18.35
2019-05-22T09:16:44.072Z,18.17
2019-05-22T09:19:20.144Z,18.03
2019-05-22T09:21:51.689Z,17.99
2019-05-22T09:24:26.648Z,17.98
2019-05-22T09:27:07.769Z,17.85
2019-05-22T09:29:40.369Z,17.82
2019-05-22T09:32:12.316Z,17.88
2019-05-22T09:34:48.401Z,17.82
2019-05-22T09:37:30.907Z,17.74
2019-05-22T09:40:11.900Z,17.57
2019-05-22T09:42:45.681Z,17.39
2019-05-22T09:45:53.303Z,17.47
2019-05-22T09:49:19.091Z,17.49
2019-05-22T09:51:17.560Z,17.50
2019-05-22T09:53:53.965Z,17.37
2019-05-22T09:56:30.231Z,17.38
2019-05-22T09:59:06.186Z,17.30
2019-05-22T10:01:37.833Z,17.28
2019-05-22T10:04:09.892Z,17.35
2019-05-22T10:06:44.261Z,17.39
2019-05-22T10:09:17.900Z,17.43
2019-05-22T10:11:52.863Z,17.44
2019-05-22T10:14:25.484Z,17.51
2019-05-22T10:17:01.567Z,17.50
2019-05-22T10:19:52.452Z,17.52
2019-05-22T10:22:26.893Z,17.55
2019-05-22T10:25:14.833Z,17.46
2019-05-22T10:27:37.858Z,17.30
2019-05-22T10:30:18.805Z,17.29
2019-05-22T10:33:01.760Z,17.32
2019-05-22T10:35:37.772Z,17.22
2019-05-22T10:38:11.408Z,17.22
2019-05-22T10:40:48.344Z,17.21
2019-05-22T10:43:25.306Z,17.15
2019-05-22T10:45:59.606Z,17.14
2019-05-22T10:48:43.029Z,17.04
2019-05-22T10:51:20.044Z,16.92
2019-05-22T10:53:58.588Z,16.89
2019-05-22T10:56:46.708Z,16.86
2019-05-22T10:59:42.435Z,16.80
2019-05-22T11:02:37.545Z,16.61
2019-05-22T11:08:35.656Z,16.48
2019-05-22T11:11:19.843Z,16.42
2019-05-22T11:14:09.300Z,16.41
2019-05-22T11:16:42.578Z,16.44
2019-05-22T11:19:19.795Z,16.48
2019-05-22T11:22:05.675Z,16.44
2019-05-22T11:24:41.973Z,16.42
2019-05-22T11:27:14.308Z,16.48
2019-05-22T11:29:56.136Z,16.63
2019-05-22T11:32:37.218Z,16.55
2019-05-22T11:35:17.352Z,16.52
2019-05-22T11:37:55.159Z,16.51
2019-05-22T11:40:28.435Z,16.47
2019-05-22T11:43:00.235Z,16.56
2019-05-22T11:45:40.165Z,16.41
2019-05-22T11:48:16.499Z,16.41
2019-05-22T11:50:49.269Z,16.50
2019-05-22T11:53:21.859Z,16.46
2019-05-22T11:55:55.786Z,16.52
2019-05-22T11:58:28.865Z,16.80
2019-05-22T12:01:02.482Z,16.81
2019-05-22T12:03:35.471Z,16.83
2019-05-22T12:06:08.787Z,16.89
2019-05-22T12:08:42.419Z,17.01
2019-05-22T12:11:17.686Z,16.98
2019-05-22T12:13:53.068Z,17.05
2019-05-22T12:16:43.512Z,16.98
2019-05-22T12:19:15.954Z,16.88
2019-05-22T12:21:56.360Z,16.82
2019-05-22T12:24:47.327Z,16.74
2019-05-22T12:27:26.747Z,16.86
2019-05-22T12:30:07.713Z,16.92
2019-05-22T12:32:41.116Z,17.01
2019-05-22T12:35:17.319Z,16.89
2019-05-22T12:37:49.349Z,16.87
2019-05-22T12:40:22.955Z,17.01
2019-05-22T12:42:59.328Z,17.06
2019-05-22T12:45:34.617Z,17.15
2019-05-22T12:48:08.382Z,17.10
2019-05-22T12:50:40.695Z,17.14
2019-05-22T12:53:21.923Z,17.40
2019-05-22T12:55:58.974Z,17.83
2019-05-22T12:58:32.457Z,18.01
2019-05-22T13:01:09.096Z,18.30
2019-05-22T13:03:45.107Z,18.39
2019-05-22T13:06:16.881Z,18.15
2019-05-22T13:08:48.806Z,18.26
2019-05-22T13:11:29.781Z,18.12
2019-05-22T13:14:07.689Z,18.09
2019-05-22T13:16:49.037Z,18.13
2019-05-22T13:19:59.698Z,18.35
2019-05-22T13:22:40.376Z,18.31
2019-05-22T13:25:17.399Z,18.35
2019-05-22T13:27:51.942Z,18.40
2019-05-22T13:30:28.763Z,18.29
2019-05-22T13:33:04.486Z,18.12
2019-05-22T13:35:43.351Z,18.26
2019-05-22T13:38:26.563Z,18.19
2019-05-22T13:41:58.527Z,18.08
2019-05-22T13:44:54.018Z,18.13
2019-05-22T13:48:14.166Z,18.00
2019-05-22T13:51:00.301Z,17.89
2019-05-22T13:53:50.448Z,17.77
2019-05-22T13:56:26.038Z,17.77
2019-05-22T13:59:16.084Z,17.76
2019-05-22T14:02:12.489Z,17.66
2019-05-22T14:05:13.582Z,17.63
2019-05-22T14:07:59.216Z,17.68
2019-05-22T14:10:34.335Z,17.79
2019-05-22T14:13:08.262Z,17.90
2019-05-22T14:16:00.691Z,17.83
2019-05-22T14:18:35.857Z,17.83
2019-05-22T14:21:14.538Z,17.93
2019-05-22T14:23:54.597Z,17.96
2019-05-22T14:29:31.543Z,17.98
2019-05-22T14:32:15.065Z,18.07
2019-05-22T14:41:47.155Z,18.11
2019-05-22T14:44:49.257Z,18.33
2019-05-22T14:50:48.803Z,18.52
2019-05-22T14:57:10.684Z,18.74
2019-05-22T15:10:30.295Z,19.18
2019-05-22T15:16:53.536Z,19.31
2019-05-22T15:19:47.019Z,19.17
2019-05-22T15:22:19.244Z,18.98
2019-05-22T15:24:52.943Z,18.88
2019-05-22T15:27:27.814Z,18.68
2019-05-22T15:33:52.938Z,18.68
2019-05-22T15:37:01.382Z,18.64
2019-05-22T15:39:46.406Z,18.56
2019-05-22T15:42:55.233Z,18.53
2019-05-22T15:45:31.723Z,18.49
2019-05-22T15:48:13.231Z,18.41
2019-05-22T15:50:47.043Z,18.41
2019-05-22T15:53:32.843Z,18.38
2019-05-22T15:56:30.946Z,18.41
2019-05-22T16:02:35.273Z,18.23
2019-05-22T16:05:09.096Z,18.10
2019-05-22T16:07:56.492Z,18.00
2019-05-22T16:13:22.196Z,17.95
2019-05-22T16:19:38.801Z,17.81
2019-05-22T16:22:31.112Z,17.77
2019-05-22T16:25:20.482Z,17.70
2019-05-22T16:28:11.992Z,17.76
2019-05-22T16:30:58.163Z,17.70
2019-05-22T16:33:36.774Z,17.66
2019-05-22T16:36:10.153Z,17.66
2019-05-22T16:38:44.713Z,17.69
2019-05-22T16:41:23.893Z,17.65
2019-05-22T16:43:56.046Z,17.66
2019-05-22T16:46:30.480Z,17.66
2019-05-22T16:49:02.357Z,17.64
2019-05-22T16:51:35.871Z,17.53
2019-05-22T16:54:09.808Z,17.47
2019-05-22T16:56:41.976Z,17.41
2019-05-22T16:59:14.688Z,17.43
2019-05-22T17:01:59.526Z,17.40
2019-05-22T17:04:27.612Z,17.38
2019-05-22T17:07:04.809Z,17.28
2019-05-22T17:09:39.814Z,17.31
2019-05-22T17:12:13.403Z,17.23
2019-05-22T17:14:46.716Z,17.08
2019-05-22T17:17:22.198Z,17.05
2019-05-22T17:19:59.145Z,16.97
2019-05-22T17:22:31.375Z,16.88
2019-05-22T17:25:03.106Z,16.89
2019-05-22T17:27:35.659Z,16.93
2019-05-22T17:30:10.144Z,16.82
2019-05-22T17:32:44.517Z,16.89
2019-05-22T17:35:23.696Z,16.76
2019-05-22T17:37:58.773Z,16.80
2019-05-22T17:40:33.678Z,16.67
2019-05-22T17:43:08.538Z,16.56
2019-05-22T17:45:43.132Z,16.67
2019-05-22T17:48:22.991Z,16.72
2019-05-22T17:50:58.574Z,16.91
2019-05-22T17:53:31.495Z,16.98
2019-05-22T17:56:04.545Z,16.98
2019-05-22T18:09:27.449Z,16.95
2019-05-22T18:12:00.810Z,16.93
2019-05-22T18:14:32.614Z,16.92
2019-05-22T18:17:10.444Z,16.89
2019-05-22T18:19:45.589Z,16.85
2019-05-22T18:22:22.140Z,16.86
2019-05-22T18:24:55.039Z,16.91
2019-05-22T18:27:27.766Z,16.86
2019-05-22T18:29:59.855Z,16.84
2019-05-22T18:32:35.723Z,16.85
2019-05-22T18:35:10.928Z,16.86
2019-05-22T18:37:43.892Z,16.87
2019-05-22T18:40:19.611Z,16.87
2019-05-22T18:42:52.418Z,16.84
2019-05-22T18:45:25.542Z,16.73
2019-05-22T18:47:57.283Z,16.57
2019-05-22T18:50:29.322Z,16.46
2019-05-22T18:53:00.966Z,16.52
2019-05-22T18:55:34.624Z,16.68
2019-05-22T18:58:06.297Z,16.67
2019-05-22T19:00:37.858Z,16.65
2019-05-22T19:03:09.528Z,16.66
2019-05-22T19:05:42.602Z,16.62
2019-05-22T19:08:14.358Z,16.59
2019-05-22T19:10:47.034Z,16.57
2019-05-22T19:13:18.794Z,16.55
2019-05-22T19:15:50.329Z,16.55
2019-05-22T19:18:26.813Z,16.51
2019-05-22T19:20:59.495Z,16.49
2019-05-22T19:23:30.863Z,16.49
2019-05-22T19:26:06.297Z,16.49
2019-05-22T19:28:43.620Z,16.48
2019-05-22T19:31:12.476Z,16.47
2019-05-22T19:33:44.046Z,16.41
2019-05-22T19:36:15.922Z,16.37
2019-05-22T19:38:47.473Z,16.33
2019-05-22T19:41:19.991Z,16.31
2019-05-22T19:43:55.453Z,16.30
2019-05-22T19:46:27.701Z,16.27
2019-05-22T19:49:00.471Z,16.26
2019-05-22T19:51:33.958Z,16.25
2019-05-22T19:54:06.624Z,16.20
2019-05-22T19:56:38.821Z,16.16
2019-05-22T19:59:12.863Z,16.12
2019-05-22T20:01:45.063Z,16.08
2019-05-22T20:04:16.639Z,16.05
2019-05-22T20:06:48.429Z,16.09
2019-05-22T20:09:21.131Z,16.10
2019-05-22T20:11:53.766Z,16.14
2019-05-22T20:14:30.633Z,16.17
2019-05-22T20:17:01.055Z,16.17
2019-05-22T20:19:34.174Z,16.12
2019-05-22T20:22:06.720Z,16.08
2019-05-22T20:24:38.912Z,16.05
2019-05-22T20:27:10.889Z,16.08
2019-05-22T20:29:47.775Z,16.07
2019-05-22T20:32:19.731Z,16.12
2019-05-22T20:34:52.804Z,16.16
2019-05-22T20:37:24.731Z,16.19
2019-05-22T20:39:56.393Z,16.22
2019-05-22T20:42:29.381Z,16.17
2019-05-22T20:45:01.647Z,16.17
2019-05-22T20:47:35.652Z,16.12
2019-05-22T20:50:10.386Z,16.08
2019-05-22T20:52:45.732Z,15.96
2019-05-22T20:55:17.669Z,15.92
2019-05-22T20:57:49.909Z,15.92
2019-05-22T21:00:26.307Z,15.84
2019-05-22T21:03:04.195Z,15.75
2019-05-22T21:05:37.511Z,15.73
2019-05-22T21:08:12.484Z,15.62
2019-05-22T21:10:46.890Z,15.56
2019-05-22T21:13:19.957Z,15.55
2019-05-22T21:15:53.060Z,15.53
2019-05-22T21:18:26.151Z,15.47
2019-05-22T21:20:58.756Z,15.47
2019-05-22T21:23:30.467Z,15.37
2019-05-22T21:26:02.247Z,15.27
2019-05-22T21:28:33.812Z,15.22
2019-05-22T21:31:06.077Z,15.21
2019-05-22T21:33:39.599Z,15.19
2019-05-22T21:36:12.590Z,15.15
2019-05-22T21:38:45.127Z,15.16
2019-05-22T21:41:20.286Z,15.14
2019-05-22T21:43:52.519Z,15.10
2019-05-22T21:46:24.458Z,15.07
2019-05-22T21:48:57.900Z,14.99
2019-05-22T21:51:29.732Z,14.99
2019-05-22T21:54:01.943Z,14.96
2019-05-22T21:56:37.849Z,14.94
2019-05-22T21:59:09.883Z,14.91
2019-05-22T22:01:44.255Z,14.99
2019-05-22T22:04:17.410Z,14.95
2019-05-22T22:06:50.210Z,15.06
2019-05-22T22:09:22.885Z,15.06
2019-05-22T22:11:55.569Z,15.07
2019-05-22T22:14:29.191Z,15.03
2019-05-22T22:17:02.998Z,15.04
2019-05-22T22:19:36.146Z,15.05
2019-05-22T22:22:11.979Z,15.16
2019-05-22T22:24:43.751Z,15.13
2019-05-22T22:27:17.557Z,15.08
2019-05-22T22:29:50.640Z,15.11
2019-05-22T22:32:23.785Z,15.03
2019-05-22T22:34:55.356Z,14.98
2019-05-22T22:37:29.601Z,14.94
2019-05-22T22:40:02.882Z,14.95
2019-05-22T22:42:40.492Z,14.92
2019-05-22T22:45:33.038Z,14.91
2019-05-22T22:48:06.507Z,14.90
2019-05-22T22:50:39.252Z,14.90
2019-05-22T22:53:10.809Z,14.82
2019-05-22T22:55:43.906Z,14.80
2019-05-22T22:58:17.943Z,14.87
2019-05-22T23:00:53.384Z,14.81
2019-05-22T23:03:27.967Z,14.73
2019-05-22T23:05:59.760Z,14.70
2019-05-22T23:08:34.949Z,14.67
2019-05-22T23:11:07.134Z,14.63
2019-05-22T23:13:38.700Z,14.62
2019-05-22T23:16:11.865Z,14.60
2019-05-22T23:18:50.347Z,14.62
2019-05-22T23:21:20.829Z,14.62
2019-05-22T23:23:51.127Z,14.64
2019-05-22T23:26:22.759Z,14.65
2019-05-22T23:28:58.155Z,14.66
2019-05-22T23:31:33.872Z,14.68
2019-05-22T23:34:06.675Z,14.75
2019-05-22T23:36:39.394Z,14.75
2019-05-22T23:39:13.142Z,14.85
2019-05-22T23:41:46.686Z,14.87
2019-05-22T23:44:23.009Z,14.88
2019-05-22T23:46:54.539Z,14.95
2019-05-22T23:49:26.269Z,15.03
2019-05-22T23:51:58.639Z,15.02
2019-05-22T23:54:31.434Z,15.03
2019-05-22T23:57:03.325Z,15.01
2019-05-22T23:59:36.892Z,15.09
